Time;durP1;ratioP1;P1;durP2;ratioP2;P2;SDS_P1;SDS_P2;PMS_P1;PMS_P2;Temp;Humidity;BMP_temperature;BMP_pressure;BME280_temperature;BME280_humidity;BME280_pressure;Samples;Min_cycle;Max_cycle;Signal;HPM_P1;HPM_P2
2023/12/06 00:01:10;;;;;;;2.00;1.30;;;;;;;3.92;76.52;97910.84;5042912;27;102698;-68
2023/12/06 00:03:38;;;;;;;1.67;1.33;;;;;;;3.96;76.28;97914.81;5039226;27;103781;-69
2023/12/06 00:06:08;;;;;;;1.45;1.08;;;;;;;3.99;76.84;97906.66;5042417;27;103228;-67
2023/12/06 00:08:39;;;;;;;1.40;1.20;;;;;;;4.01;76.63;97914.38;5039308;27;103332;-68
2023/12/06 00:11:06;;;;;;;2.30;1.13;;;;;;;4.03;76.78;97912.44;5038599;27;102614;-68
2023/12/06 00:13:34;;;;;;;1.52;1.30;;;;;;;4.04;76.40;97911.47;5047884;27;103747;-68
2023/12/06 00:16:02;;;;;;;1.60;1.30;;;;;;;4.07;76.65;97917.22;5045192;27;103421;-68
2023/12/06 00:18:30;;;;;;;1.33;1.10;;;;;;;4.06;75.84;97910.34;5049208;27;103177;-68
2023/12/06 00:20:59;;;;;;;1.30;1.20;;;;;;;4.06;76.38;97922.63;5039601;27;102685;-68
2023/12/06 00:23:28;;;;;;;1.30;1.13;;;;;;;4.09;76.45;97917.09;5047406;27;102710;-68
2023/12/06 00:25:56;;;;;;;1.23;1.08;;;;;;;4.05;76.34;97916.56;5043904;27;104085;-68
2023/12/06 00:28:24;;;;;;;0.90;0.90;;;;;;;4.04;76.24;97925.38;5046073;27;103850;-68
2023/12/06 00:30:55;;;;;;;1.02;1.02;;;;;;;4.06;76.01;97912.97;5040557;27;102684;-68
2023/12/06 00:33:23;;;;;;;1.30;1.20;;;;;;;4.05;76.79;97921.81;5038736;27;102739;-68
2023/12/06 00:35:52;;;;;;;1.70;1.30;;;;;;;4.11;76.71;97921.22;5042342;27;103191;-68
2023/12/06 00:38:20;;;;;;;1.10;1.00;;;;;;;4.11;76.73;97918.59;5038749;27;102966;-68
2023/12/06 00:40:49;;;;;;;1.58;1.17;;;;;;;4.08;76.75;97925.94;5035279;27;102599;-68
2023/12/06 00:43:17;;;;;;;2.55;1.20;;;;;;;4.08;76.46;97921.50;5060447;27;103088;-68
2023/12/06 00:45:45;;;;;;;1.23;1.13;;;;;;;4.12;76.73;97922.84;5045510;27;104040;-68
2023/12/06 00:48:14;;;;;;;0.98;0.90;;;;;;;4.13;76.36;97929.75;5036873;27;103217;-68
2023/12/06 00:50:43;;;;;;;0.95;0.80;;;;;;;4.11;76.27;97931.72;5046516;27;102739;-68
2023/12/06 00:53:11;;;;;;;0.80;0.80;;;;;;;4.10;76.57;97939.69;5040562;27;102697;-68
2023/12/06 00:55:41;;;;;;;1.08;1.00;;;;;;;4.11;76.85;97936.09;5057761;27;104350;-68
2023/12/06 00:58:10;;;;;;;2.05;1.33;;;;;;;4.15;76.73;97927.81;5041862;27;103254;-67
2023/12/06 01:00:39;;;;;;;1.05;1.02;;;;;;;4.16;76.93;97928.63;5037305;27;102717;-68
2023/12/06 01:03:06;;;;;;;1.33;1.00;;;;;;;4.19;76.77;97935.38;5045289;27;102697;-68
2023/12/06 01:05:35;;;;;;;0.98;0.90;;;;;;;4.19;76.82;97938.81;5047336;27;103273;-68
2023/12/06 01:08:02;;;;;;;1.17;1.08;;;;;;;4.19;76.80;97945.88;5044865;27;103324;-68
2023/12/06 01:10:34;;;;;;;1.08;1.00;;;;;;;4.15;77.19;97943.53;5041209;27;102612;-68
2023/12/06 01:13:05;;;;;;;1.25;1.10;;;;;;;4.18;77.18;97949.44;5042975;27;103891;-67
2023/12/06 01:15:34;;;;;;;1.45;1.20;;;;;;;4.22;76.57;97953.44;5048613;27;103986;-68
2023/12/06 01:18:03;;;;;;;1.15;0.90;;;;;;;4.19;76.93;97959.78;5047581;27;103217;-68
2023/12/06 01:20:31;;;;;;;1.58;1.10;;;;;;;4.18;76.84;97952.06;5044965;27;102655;-68
2023/12/06 01:22:59;;;;;;;1.38;1.27;;;;;;;4.23;76.75;97957.72;5037158;27;104402;-68
2023/12/06 01:25:27;;;;;;;1.45;0.98;;;;;;;4.24;76.90;97959.38;5044886;27;103318;-68
2023/12/06 01:27:55;;;;;;;2.17;1.25;;;;;;;4.17;76.89;97960.91;5044652;27;103283;-69
2023/12/06 01:30:23;;;;;;;1.60;1.08;;;;;;;4.15;76.63;97969.75;5042811;27;102972;-68
2023/12/06 01:32:53;;;;;;;1.42;1.00;;;;;;;4.17;76.68;97967.00;5030642;27;102890;-68
2023/12/06 01:35:21;;;;;;;1.85;1.20;;;;;;;4.20;76.44;97971.13;5034845;27;104019;-68
2023/12/06 01:37:50;;;;;;;1.13;1.02;;;;;;;4.22;76.55;97974.41;5046396;27;103453;-68
2023/12/06 01:40:18;;;;;;;1.30;1.02;;;;;;;4.23;76.77;97976.91;5037488;27;102729;-69
2023/12/06 01:42:46;;;;;;;1.58;1.20;;;;;;;4.26;76.20;97973.16;5046132;27;104184;-69
2023/12/06 01:45:15;;;;;;;1.48;1.33;;;;;;;4.23;76.93;97979.53;5050514;27;103215;-68
2023/12/06 01:47:45;;;;;;;1.70;1.20;;;;;;;4.25;76.91;97979.38;5047214;27;103375;-68
2023/12/06 01:50:15;;;;;;;1.00;1.00;;;;;;;4.14;76.67;97983.00;5044311;27;102586;-68
2023/12/06 01:52:43;;;;;;;1.38;1.15;;;;;;;4.15;76.45;97982.88;5049650;27;103852;-68
2023/12/06 01:55:11;;;;;;;2.55;1.55;;;;;;;4.18;76.64;97978.28;5047061;27;103171;-68
2023/12/06 01:57:40;;;;;;;1.55;1.20;;;;;;;4.15;76.80;97980.25;5051714;27;103422;-68
2023/12/06 02:00:10;;;;;;;1.42;1.20;;;;;;;4.21;76.28;97983.25;5050978;27;103843;-69
2023/12/06 02:02:40;;;;;;;1.63;1.40;;;;;;;4.19;76.97;97979.94;5046008;27;103851;-68
2023/12/06 02:05:09;;;;;;;1.20;1.10;;;;;;;4.22;76.66;97984.88;5054054;27;103272;-69
2023/12/06 02:07:40;;;;;;;1.52;1.25;;;;;;;4.23;76.79;97989.16;5044597;27;103188;-68
2023/12/06 02:10:09;;;;;;;2.17;1.30;;;;;;;4.21;76.65;97983.25;5045610;27;102560;-67
2023/12/06 02:12:37;;;;;;;1.27;1.10;;;;;;;4.23;76.76;97986.53;5043290;27;102705;-68
2023/12/06 02:15:06;;;;;;;0.90;0.90;;;;;;;4.22;76.35;97995.38;5048827;27;103251;-68
2023/12/06 02:17:35;;;;;;;0.90;0.90;;;;;;;4.17;76.56;97997.59;5047534;27;103273;-69
2023/12/06 02:20:04;;;;;;;1.15;0.98;;;;;;;4.16;76.55;97991.53;5052267;27;102603;-68
2023/12/06 02:22:32;;;;;;;0.73;0.73;;;;;;;4.13;76.19;97991.84;5050110;27;104147;-69
2023/12/06 02:25:05;;;;;;;1.05;1.00;;;;;;;4.17;76.57;97990.56;5051742;27;103838;-69
2023/12/06 02:27:34;;;;;;;1.20;1.10;;;;;;;4.15;76.93;97995.97;5051363;27;103326;-68
2023/12/06 02:30:02;;;;;;;1.50;1.17;;;;;;;4.17;76.65;97992.34;5052228;27;103055;-68
2023/12/06 02:32:30;;;;;;;0.90;0.90;;;;;;;4.19;76.19;97990.41;5052397;27;102679;-68
2023/12/06 02:35:01;;;;;;;0.80;0.80;;;;;;;4.22;76.52;97992.75;5051929;27;103011;-68
2023/12/06 02:37:30;;;;;;;0.98;0.90;;;;;;;4.21;76.21;97993.75;5040129;27;103356;-69
2023/12/06 02:40:03;;;;;;;2.05;1.00;;;;;;;4.18;76.65;97991.38;5041921;27;102647;-69
2023/12/06 02:42:31;;;;;;;1.00;1.00;;;;;;;4.18;76.69;97994.00;5052844;27;102704;-69
2023/12/06 02:45:01;;;;;;;1.85;1.20;;;;;;;4.21;76.43;97991.13;5045878;27;104497;-69
2023/12/06 02:47:29;;;;;;;0.88;0.88;;;;;;;4.19;76.84;97987.81;5046570;27;103389;-69
2023/12/06 02:49:59;;;;;;;0.80;0.80;;;;;;;4.17;77.09;97987.09;5038607;27;102634;-69
2023/12/06 02:52:27;;;;;;;0.80;0.80;;;;;;;4.17;77.00;97984.50;5047068;27;104003;-68
2023/12/06 02:54:54;;;;;;;1.10;1.00;;;;;;;4.19;76.92;97986.00;5047590;27;104092;-68
2023/12/06 02:57:22;;;;;;;1.00;0.90;;;;;;;4.17;76.66;97984.50;5048747;27;103332;-68
2023/12/06 02:59:51;;;;;;;1.00;0.90;;;;;;;4.17;76.72;97984.50;5044075;27;102593;-68
2023/12/06 03:02:20;;;;;;;0.88;0.85;;;;;;;4.14;76.30;97989.06;5036346;27;103019;-68
2023/12/06 03:04:48;;;;;;;1.25;1.10;;;;;;;4.15;76.57;97984.63;5046582;27;103249;-68
2023/12/06 03:07:16;;;;;;;1.00;1.00;;;;;;;4.13;76.13;97990.03;5045995;27;103312;-68
2023/12/06 03:09:44;;;;;;;1.15;1.10;;;;;;;4.14;76.02;97989.06;5049954;27;102652;-68
2023/12/06 03:12:12;;;;;;;0.98;0.98;;;;;;;4.02;76.17;97994.63;5045531;27;102820;-68
2023/12/06 03:14:42;;;;;;;1.00;0.90;;;;;;;3.98;76.41;97994.94;5046431;27;103184;-68
2023/12/06 03:17:10;;;;;;;0.80;0.80;;;;;;;4.03;76.12;97989.25;5040145;27;102632;-68
2023/12/06 03:19:39;;;;;;;0.90;0.90;;;;;;;4.05;76.30;97989.09;5042919;27;102673;-68
2023/12/06 03:22:07;;;;;;;0.90;0.90;;;;;;;4.04;75.93;97983.03;5049060;27;102885;-68
2023/12/06 03:24:35;;;;;;;0.75;0.75;;;;;;;4.08;76.30;97992.25;5040157;27;104308;-68
2023/12/06 03:27:04;;;;;;;0.70;0.70;;;;;;;4.09;76.31;97986.06;5044908;27;103560;-68
2023/12/06 03:29:32;;;;;;;0.80;0.80;;;;;;;4.08;76.16;97994.88;5046458;27;102708;-68
2023/12/06 03:32:00;;;;;;;0.68;0.68;;;;;;;4.07;76.39;97995.84;5048629;27;102942;-68
2023/12/06 03:34:28;;;;;;;0.88;0.80;;;;;;;4.01;76.50;97988.56;5046139;27;103408;-68
2023/12/06 03:36:59;;;;;;;0.70;0.70;;;;;;;4.00;76.50;97992.16;5051006;27;104160;-68
2023/12/06 03:39:27;;;;;;;0.70;0.70;;;;;;;4.03;75.92;97997.09;5038376;27;102685;-68
2023/12/06 03:41:55;;;;;;;1.08;0.90;;;;;;;4.00;75.67;97986.91;5047361;27;104179;-68
2023/12/06 03:44:23;;;;;;;0.75;0.75;;;;;;;3.99;76.08;97990.50;5043492;27;103392;-68
2023/12/06 03:46:51;;;;;;;0.60;0.60;;;;;;;3.94;76.21;97995.34;5051372;27;103054;-68
2023/12/06 03:49:19;;;;;;;0.80;0.80;;;;;;;3.98;76.30;97991.47;5044737;27;102613;-68
2023/12/06 03:51:47;;;;;;;1.05;0.80;;;;;;;3.92;76.05;97987.63;5041800;27;102773;-68
2023/12/06 03:54:17;;;;;;;0.70;0.70;;;;;;;4.02;76.00;97990.19;5050908;27;103109;-68
2023/12/06 03:56:45;;;;;;;0.68;0.68;;;;;;;4.00;76.13;97994.78;5050717;27;104050;-68
2023/12/06 03:59:14;;;;;;;0.70;0.70;;;;;;;3.92;75.71;97994.69;5046828;27;102655;-68
2023/12/06 04:01:43;;;;;;;0.70;0.70;;;;;;;3.96;76.00;98001.28;5038888;27;102801;-68
2023/12/06 04:04:12;;;;;;;1.33;0.93;;;;;;;3.86;75.80;97996.06;5038105;27;103455;-68
2023/12/06 04:06:40;;;;;;;0.80;0.80;;;;;;;3.90;76.03;97997.41;5037595;27;103259;-68
2023/12/06 04:09:10;;;;;;;0.50;0.50;;;;;;;3.99;75.91;98000.97;5044780;27;103829;-68
2023/12/06 04:11:40;;;;;;;1.70;0.93;;;;;;;4.01;75.45;97995.59;5044191;27;102697;-68
2023/12/06 04:14:08;;;;;;;0.70;0.70;;;;;;;4.06;75.36;98002.06;5044284;27;104305;-68
2023/12/06 04:16:37;;;;;;;0.70;0.70;;;;;;;4.08;75.46;97994.88;5047426;27;103256;-68
2023/12/06 04:19:05;;;;;;;1.27;0.90;;;;;;;4.07;75.33;98003.69;5040857;27;102616;-68
2023/12/06 04:21:36;;;;;;;0.60;0.60;;;;;;;4.05;75.38;97995.19;5039482;27;103265;-68
2023/12/06 04:24:04;;;;;;;1.95;0.75;;;;;;;4.04;75.67;97998.75;5047835;27;103333;-69
2023/12/06 04:26:32;;;;;;;1.08;1.00;;;;;;;4.03;75.77;98007.59;5048722;27;103248;-68
2023/12/06 04:29:01;;;;;;;0.82;0.82;;;;;;;4.06;75.87;98012.56;5038524;27;103041;-68
2023/12/06 04:31:29;;;;;;;0.60;0.60;;;;;;;4.04;75.33;98014.47;5044271;27;102867;-68
2023/12/06 04:33:57;;;;;;;0.60;0.60;;;;;;;4.06;75.78;98019.56;5046690;27;103296;-68
2023/12/06 04:36:27;;;;;;;0.95;0.80;;;;;;;4.06;75.75;98023.03;5046844;27;103418;-68
2023/12/06 04:38:55;;;;;;;0.65;0.65;;;;;;;4.08;76.03;98026.31;5044825;27;102696;-68
2023/12/06 04:41:24;;;;;;;0.77;0.77;;;;;;;4.08;75.84;98018.47;5043069;27;102942;-67
2023/12/06 04:43:51;;;;;;;0.55;0.55;;;;;;;4.05;75.84;98018.75;5041246;27;103305;-68
2023/12/06 04:46:21;;;;;;;0.88;0.88;;;;;;;4.09;75.56;98027.97;5043614;27;103206;-68
2023/12/06 04:48:49;;;;;;;0.80;0.80;;;;;;;4.02;75.80;98026.88;5039447;27;102600;-68
2023/12/06 04:51:17;;;;;;;0.60;0.60;;;;;;;4.03;75.52;98030.34;5043901;27;102694;-68
2023/12/06 04:53:45;;;;;;;0.73;0.70;;;;;;;4.04;75.48;98024.97;5037465;27;103870;-68
2023/12/06 04:56:13;;;;;;;1.25;1.00;;;;;;;4.03;75.13;98025.94;5044137;27;103635;-68
2023/12/06 04:58:41;;;;;;;0.82;0.82;;;;;;;4.03;75.26;98033.78;5041771;27;103388;-68
2023/12/06 05:01:10;;;;;;;0.70;0.70;;;;;;;4.04;75.75;98038.06;5045504;27;104030;-68
2023/12/06 05:03:39;;;;;;;0.70;0.70;;;;;;;4.04;75.49;98035.44;5046143;27;103234;-68
2023/12/06 05:06:08;;;;;;;0.80;0.80;;;;;;;4.01;75.56;98040.13;5049926;27;104155;-68
2023/12/06 05:08:36;;;;;;;0.80;0.80;;;;;;;4.05;74.95;98041.50;5041315;27;102649;-68
2023/12/06 05:11:04;;;;;;;1.95;0.90;;;;;;;3.91;75.94;98034.94;5042488;27;102640;-68
2023/12/06 05:13:32;;;;;;;1.08;0.90;;;;;;;3.92;76.16;98037.41;5042166;27;104824;-68
2023/12/06 05:16:00;;;;;;;0.70;0.70;;;;;;;3.97;75.13;98035.19;5042261;27;103086;-69
2023/12/06 05:18:28;;;;;;;0.77;0.77;;;;;;;3.93;75.42;98043.47;5060282;27;103877;-68
2023/12/06 05:20:58;;;;;;;0.90;0.80;;;;;;;3.97;75.88;98050.91;5043280;27;102875;-68
2023/12/06 05:23:26;;;;;;;0.85;0.85;;;;;;;4.03;75.55;98052.13;5049217;27;103641;-68
2023/12/06 05:25:53;;;;;;;0.75;0.70;;;;;;;4.11;75.53;98051.41;5041336;27;103369;-68
2023/12/06 05:28:24;;;;;;;0.70;0.70;;;;;;;4.05;75.20;98051.97;5042979;27;102512;-68
2023/12/06 05:30:52;;;;;;;0.70;0.70;;;;;;;4.05;75.24;98055.44;5039117;27;103025;-68
2023/12/06 05:33:20;;;;;;;0.80;0.80;;;;;;;4.06;75.00;98056.25;5041059;27;103211;-68
2023/12/06 05:35:48;;;;;;;0.75;0.75;;;;;;;4.08;75.64;98052.53;5036691;27;103259;-68
2023/12/06 05:38:17;;;;;;;0.82;0.82;;;;;;;4.11;75.26;98057.50;5037249;27;103311;-68
2023/12/06 05:40:46;;;;;;;0.70;0.70;;;;;;;4.09;74.83;98058.63;5059197;27;103836;-68
2023/12/06 05:43:14;;;;;;;0.60;0.60;;;;;;;4.13;75.30;98055.56;5044849;27;104591;-68
2023/12/06 05:45:43;;;;;;;1.10;1.00;;;;;;;4.19;75.17;98056.75;5040486;27;103259;-68
2023/12/06 05:48:11;;;;;;;1.25;1.00;;;;;;;4.19;75.13;98054.16;5039462;27;102619;-68
2023/12/06 05:50:41;;;;;;;0.73;0.73;;;;;;;4.21;75.06;98051.41;5041079;27;103932;-68
2023/12/06 05:53:09;;;;;;;2.05;1.25;;;;;;;4.23;74.94;98044.22;5035679;27;103027;-68
2023/12/06 05:55:38;;;;;;;2.88;1.60;;;;;;;4.18;74.82;98052.53;5036398;27;103837;-68
2023/12/06 05:58:06;;;;;;;3.22;1.75;;;;;;;4.14;74.94;98053.78;5037079;27;102660;-68
2023/12/06 06:00:35;;;;;;;1.73;1.35;;;;;;;4.15;74.72;98058.03;5024545;27;103379;-70
2023/12/06 06:03:13;;;;;;;2.55;1.15;;;;;;;4.20;74.85;98062.84;5037521;27;104134;-68
2023/12/06 06:05:42;;;;;;;1.80;1.27;;;;;;;4.13;75.42;98055.56;5038327;27;103343;-69
2023/12/06 06:08:10;;;;;;;2.00;1.30;;;;;;;4.19;75.00;98059.38;5037635;27;103039;-68
2023/12/06 06:10:42;;;;;;;2.35;1.60;;;;;;;4.22;74.82;98058.28;5038247;27;103970;-69
2023/12/06 06:13:14;;;;;;;2.45;1.50;;;;;;;4.22;75.49;98066.13;5039501;27;104075;-68
2023/12/06 06:15:44;;;;;;;2.75;2.03;;;;;;;4.23;74.99;98062.56;5043159;27;103230;-68
2023/12/06 06:18:13;;;;;;;1.42;1.20;;;;;;;4.17;74.59;98063.13;5034858;27;102645;-68
2023/12/06 06:20:41;;;;;;;1.85;1.20;;;;;;;4.22;75.02;98063.50;5042039;27;103811;-68
2023/12/06 06:23:11;;;;;;;1.60;1.08;;;;;;;4.21;74.66;98062.69;5042315;27;103887;-68
2023/12/06 06:25:38;;;;;;;6.90;1.60;;;;;;;4.23;74.68;98066.03;5042082;27;103297;-68
2023/12/06 06:28:08;;;;;;;1.55;1.20;;;;;;;4.23;74.63;98076.50;5043549;27;102817;-68
2023/12/06 06:30:36;;;;;;;1.17;0.90;;;;;;;4.21;74.43;98073.19;5034454;27;102720;-68
2023/12/06 06:33:04;;;;;;;3.63;1.80;;;;;;;4.25;74.18;98074.56;5038236;27;103883;-68
2023/12/06 06:35:32;;;;;;;2.45;1.40;;;;;;;4.25;74.67;98073.75;5046991;27;103836;-68
2023/12/06 06:38:01;;;;;;;3.55;1.70;;;;;;;4.29;74.75;98080.34;5040872;27;103076;-68
2023/12/06 06:40:29;;;;;;;3.22;1.48;;;;;;;4.28;74.24;98083.94;5047879;27;104065;-67
2023/12/06 06:42:58;;;;;;;4.35;2.22;;;;;;;4.32;74.15;98086.13;5049263;27;103285;-68
2023/12/06 06:45:27;;;;;;;3.25;1.83;;;;;;;4.31;74.67;98083.66;5040708;27;104248;-68
2023/12/06 06:47:55;;;;;;;5.30;2.35;;;;;;;4.34;74.11;98087.75;5047751;27;102557;-67
2023/12/06 06:50:24;;;;;;;3.33;1.80;;;;;;;4.33;74.10;98086.94;5047240;27;102712;-67
2023/12/06 06:52:51;;;;;;;4.05;2.00;;;;;;;4.36;73.78;98091.88;5046135;27;103113;-67
2023/12/06 06:55:19;;;;;;;3.35;1.92;;;;;;;4.38;74.35;98094.41;5041707;27;103175;-68
2023/12/06 06:57:47;;;;;;;2.45;1.75;;;;;;;4.37;74.02;98104.03;5039251;27;102704;-67
2023/12/06 07:00:16;;;;;;;3.30;1.80;;;;;;;4.40;74.17;98095.06;5044785;27;103953;-67
2023/12/06 07:03:00;;;;;;;2.83;1.93;;;;;;;4.37;74.53;98101.41;5042430;27;103350;-68
2023/12/06 07:05:28;;;;;;;2.67;1.85;;;;;;;4.38;74.43;98105.69;5037943;27;103203;-67
2023/12/06 07:07:56;;;;;;;4.03;2.00;;;;;;;4.35;74.46;98092.03;5045602;27;102620;-68
2023/12/06 07:10:24;;;;;;;4.18;2.38;;;;;;;4.36;74.33;98106.81;5042594;27;103939;-67
2023/12/06 07:12:52;;;;;;;4.72;2.75;;;;;;;4.38;73.76;98110.94;5037838;27;104036;-68
2023/12/06 07:15:25;;;;;;;4.43;2.53;;;;;;;4.39;73.96;98123.09;5045553;27;103523;-68
2023/12/06 07:17:53;;;;;;;4.88;2.35;;;;;;;4.40;73.87;98119.50;5051552;27;103001;-68
2023/12/06 07:20:24;;;;;;;3.45;1.95;;;;;;;4.40;74.41;98119.50;5049145;27;102822;-67
2023/12/06 07:23:06;;;;;;;4.00;1.88;;;;;;;4.40;74.40;98124.75;5038507;27;104256;-67
2023/12/06 07:25:34;;;;;;;2.88;1.70;;;;;;;4.40;74.41;98130.00;5042875;27;103271;-65
2023/12/06 07:28:03;;;;;;;2.58;1.70;;;;;;;4.43;73.85;98123.63;5045588;27;102719;-68
2023/12/06 07:30:31;;;;;;;2.67;1.70;;;;;;;4.41;74.16;98131.63;5047048;27;103674;-68
2023/12/06 07:32:59;;;;;;;2.88;1.70;;;;;;;4.39;73.83;98141.44;5049784;27;103816;-68
2023/12/06 07:35:29;;;;;;;2.13;1.40;;;;;;;4.40;73.76;98148.34;5045502;27;103292;-68
2023/12/06 07:37:57;;;;;;;3.92;1.80;;;;;;;4.43;73.75;98150.66;5048955;27;102597;-68
2023/12/06 07:40:25;;;;;;;1.58;1.40;;;;;;;4.42;74.42;98158.69;5042930;27;104006;-68
2023/12/06 07:42:53;;;;;;;1.98;1.58;;;;;;;4.45;74.78;98153.16;5045705;27;103326;-68
2023/12/06 07:45:23;;;;;;;2.40;1.40;;;;;;;4.45;74.47;98161.84;5047774;27;103207;-68
2023/12/06 07:47:51;;;;;;;2.83;1.40;;;;;;;4.50;74.53;98165.84;5049231;27;102823;-67
2023/12/06 07:50:21;;;;;;;1.50;1.30;;;;;;;4.44;74.15;98168.06;5051882;27;103568;-69
2023/12/06 07:52:53;;;;;;;1.60;1.38;;;;;;;4.50;74.18;98166.66;5052779;27;103210;-68
2023/12/06 07:55:23;;;;;;;1.27;1.17;;;;;;;4.48;74.06;98174.69;5045043;27;103189;-68
2023/12/06 07:57:54;;;;;;;3.08;2.03;;;;;;;4.38;73.74;98189.59;5053426;27;102670;-68
2023/12/06 08:00:22;;;;;;;2.38;1.50;;;;;;;4.45;74.03;98187.25;5048594;27;103882;-68
2023/12/06 08:02:50;;;;;;;9.65;1.80;;;;;;;4.45;73.94;98189.84;5048282;27;103340;-68
2023/12/06 08:05:19;;;;;;;1.95;1.48;;;;;;;4.39;74.26;98193.88;5046050;27;103455;-67
2023/12/06 08:07:49;;;;;;;4.05;2.15;;;;;;;4.42;74.40;98205.88;5048852;27;102772;-68
2023/12/06 08:10:22;;;;;;;3.72;2.40;;;;;;;4.30;74.61;98203.41;5050199;27;102632;-68
2023/12/06 08:12:55;;;;;;;3.53;2.30;;;;;;;4.32;74.60;98205.88;5044052;27;104306;-68
2023/12/06 08:15:26;;;;;;;4.68;3.17;;;;;;;4.19;73.91;98205.34;5048365;27;103139;-68
2023/12/06 08:17:54;;;;;;;4.75;3.20;;;;;;;4.27;74.29;98208.09;5043487;27;102603;-68
2023/12/06 08:20:22;;;;;;;4.60;3.40;;;;;;;4.24;74.21;98218.88;5039398;27;102770;-75
2023/12/06 08:22:51;;;;;;;7.85;4.00;;;;;;;4.29;74.26;98217.47;5046783;27;103229;-68
2023/12/06 08:25:21;;;;;;;6.03;4.35;;;;;;;4.18;73.99;98219.41;5041759;27;103266;-68
2023/12/06 08:27:49;;;;;;;6.75;4.72;;;;;;;4.10;73.86;98222.75;5046416;27;104010;-68
2023/12/06 08:30:17;;;;;;;7.18;5.63;;;;;;;4.22;73.49;98233.91;5039747;27;102670;-68
2023/12/06 08:32:45;;;;;;;9.82;6.03;;;;;;;4.07;73.93;98229.06;5043717;27;103333;-68
2023/12/06 08:35:13;;;;;;;8.43;5.45;;;;;;;4.13;73.69;98238.22;5043328;27;103272;-69
2023/12/06 08:37:42;;;;;;;7.18;6.07;;;;;;;4.13;73.90;98240.81;5042567;27;102711;-75
2023/12/06 08:40:12;;;;;;;7.50;5.72;;;;;;;4.08;73.81;98246.47;5031965;27;102595;-74
2023/12/06 08:42:41;;;;;;;10.13;6.88;;;;;;;4.00;74.17;98248.13;5042878;27;103863;-75
2023/12/06 08:45:10;;;;;;;9.40;6.68;;;;;;;3.94;74.55;98252.13;5048710;27;103189;-75
2023/12/06 08:47:42;;;;;;;8.05;6.03;;;;;;;3.96;73.90;98258.88;5046121;27;103061;-74
2023/12/06 08:50:11;;;;;;;9.45;6.47;;;;;;;3.87;74.35;98258.88;5040514;27;102854;-74
2023/12/06 08:52:39;;;;;;;8.70;6.43;;;;;;;3.91;74.43;98270.75;5048621;27;103705;-72
2023/12/06 08:55:10;;;;;;;11.25;6.65;;;;;;;3.91;74.82;98270.75;5044633;27;103789;-70
2023/12/06 08:57:38;;;;;;;9.55;7.00;;;;;;;4.02;74.37;98267.97;5044301;27;102667;-70
2023/12/06 09:00:14;;;;;;;7.18;5.95;;;;;;;4.10;74.20;98269.91;5040738;27;102758;-70
2023/12/06 09:02:43;;;;;;;8.60;6.63;;;;;;;4.04;73.73;98276.53;5050355;27;104127;-70
2023/12/06 09:05:11;;;;;;;8.07;6.47;;;;;;;3.94;74.37;98267.84;5047977;27;103233;-70
2023/12/06 09:07:39;;;;;;;9.13;7.55;;;;;;;3.96;74.39;98271.16;5049966;27;102634;-70
2023/12/06 09:10:09;;;;;;;9.40;6.30;;;;;;;3.91;74.54;98275.97;5041910;27;102813;-69
2023/12/06 09:12:37;;;;;;;9.23;7.60;;;;;;;3.88;74.19;98276.22;5045717;27;103215;-70
2023/12/06 09:15:06;;;;;;;7.88;6.32;;;;;;;3.88;74.37;98276.22;5034103;27;103312;-69
2023/12/06 09:17:35;;;;;;;7.93;6.00;;;;;;;3.95;74.64;98287.84;5041776;27;102629;-69
2023/12/06 09:20:04;;;;;;;8.13;5.80;;;;;;;3.91;74.69;98286.47;5047305;27;102658;-70
2023/12/06 09:22:32;;;;;;;9.38;7.35;;;;;;;3.85;74.85;98293.06;5038212;27;103291;-69
2023/12/06 09:25:04;;;;;;;10.50;8.13;;;;;;;3.83;75.25;98289.75;5040670;27;103335;-69
2023/12/06 09:27:33;;;;;;;8.98;6.43;;;;;;;3.93;74.68;98300.25;5044456;27;102585;-69
2023/12/06 09:30:01;;;;;;;10.27;7.85;;;;;;;3.86;75.27;98301.75;5041698;27;102642;-67
2023/12/06 09:32:29;;;;;;;9.55;7.45;;;;;;;3.72;74.47;98300.34;5041404;27;104866;-67
2023/12/06 09:34:58;;;;;;;8.38;6.88;;;;;;;3.75;74.69;98300.09;5042126;27;103239;-67
2023/12/06 09:37:26;;;;;;;10.43;7.70;;;;;;;3.72;74.45;98303.81;5050197;27;102642;-66
2023/12/06 09:39:55;;;;;;;8.48;6.60;;;;;;;3.87;74.16;98306.03;5036627;27;102626;-67
2023/12/06 09:42:26;;;;;;;8.65;7.25;;;;;;;3.74;74.18;98312.34;5047111;27;103233;-67
2023/12/06 09:44:56;;;;;;;9.93;7.93;;;;;;;3.72;74.17;98314.28;5040197;27;103299;-67
2023/12/06 09:47:29;;;;;;;10.35;7.75;;;;;;;3.76;74.60;98310.44;5039601;27;102975;-68
2023/12/06 09:49:59;;;;;;;10.70;7.90;;;;;;;3.85;74.00;98319.25;5063852;27;102660;-68
2023/12/06 09:52:28;;;;;;;8.95;6.97;;;;;;;3.93;73.81;98318.56;5049587;27;103381;-68
2023/12/06 09:54:59;;;;;;;9.82;7.28;;;;;;;3.90;74.32;98321.47;5041430;27;103070;-68
2023/12/06 09:57:27;;;;;;;11.57;8.18;;;;;;;3.93;74.08;98315.97;5044870;27;102622;-68
2023/12/06 09:59:55;;;;;;;10.13;8.68;;;;;;;3.84;73.80;98322.00;5046218;27;102670;-68
2023/12/06 10:02:23;;;;;;;11.43;8.02;;;;;;;3.87;73.75;98319.13;5048452;27;103366;-68
2023/12/06 10:04:51;;;;;;;9.02;7.30;;;;;;;3.83;73.42;98323.00;5049164;27;103205;-68
2023/12/06 10:07:23;;;;;;;8.93;7.45;;;;;;;3.85;73.19;98328.91;5054712;27;102597;-68
2023/12/06 10:09:52;;;;;;;10.85;7.40;;;;;;;3.86;73.85;98326.16;5048260;27;102683;-68
2023/12/06 10:12:21;;;;;;;10.35;7.50;;;;;;;3.88;74.12;98329.47;5049490;27;104032;-69
2023/12/06 10:14:58;;;;;;;11.52;8.68;;;;;;;3.77;73.46;98332.19;5051111;27;103183;-67
2023/12/06 10:17:26;;;;;;;10.63;7.75;;;;;;;3.84;73.35;98330.72;5044984;27;102955;-74
2023/12/06 10:19:56;;;;;;;10.05;7.57;;;;;;;3.93;73.12;98331.69;5045477;27;103612;-69
2023/12/06 10:22:26;;;;;;;10.65;7.70;;;;;;;3.94;73.23;98328.94;5046450;27;103452;-69
2023/12/06 10:24:56;;;;;;;9.75;7.45;;;;;;;3.96;73.46;98331.44;5052412;27;103024;-68
2023/12/06 10:27:26;;;;;;;9.23;7.00;;;;;;;3.96;73.49;98345.34;5048552;27;102824;-69
2023/12/06 10:29:54;;;;;;;8.52;7.20;;;;;;;3.92;74.00;98335.28;5043832;27;102945;-69
2023/12/06 10:32:22;;;;;;;10.77;8.27;;;;;;;3.90;73.14;98339.81;5043798;27;103041;-69
2023/12/06 10:34:54;;;;;;;11.35;8.55;;;;;;;3.91;73.54;98347.53;5049139;27;104138;-69
2023/12/06 10:37:26;;;;;;;9.65;7.32;;;;;;;3.96;73.44;98347.16;5047032;27;102675;-69
2023/12/06 10:40:09;;;;;;;9.93;8.00;;;;;;;3.81;73.35;98344.06;5043170;27;102754;-68
2023/12/06 10:42:40;;;;;;;8.48;6.68;;;;;;;3.83;72.73;98347.38;5045038;27;104216;-69
2023/12/06 10:45:10;;;;;;;9.45;7.60;;;;;;;3.91;73.29;98346.72;5051174;27;103220;-69
2023/12/06 10:47:40;;;;;;;8.95;6.95;;;;;;;3.95;72.98;98342.88;5040948;27;102607;-69
2023/12/06 10:50:10;;;;;;;9.93;7.45;;;;;;;3.91;72.60;98349.34;5045711;27;102672;-69
2023/12/06 10:52:39;;;;;;;9.75;7.60;;;;;;;3.86;72.85;98341.88;5045641;27;104431;-68
2023/12/06 10:55:10;;;;;;;10.55;7.13;;;;;;;3.97;72.65;98348.81;5043306;27;104189;-69
2023/12/06 10:57:40;;;;;;;8.93;6.70;;;;;;;4.07;72.49;98343.59;5048102;27;102651;-69
2023/12/06 11:00:10;;;;;;;7.32;6.15;;;;;;;4.08;72.96;98347.88;5044491;27;102805;-69
2023/12/06 11:02:38;;;;;;;8.77;7.15;;;;;;;4.06;73.05;98342.75;5040623;27;104443;-69
2023/12/06 11:05:11;;;;;;;9.27;6.88;;;;;;;4.03;72.85;98348.25;5043380;27;103196;-70
2023/12/06 11:07:58;;;;;;;8.90;7.28;;;;;;;4.07;72.50;98360.13;5057228;27;102666;-69
2023/12/06 11:10:42;;;;;;;8.63;6.82;;;;;;;4.15;72.11;98352.44;5042948;27;102650;-69
2023/12/06 11:13:25;;;;;;;9.27;7.18;;;;;;;4.08;72.09;98356.53;5042557;27;103248;-70
2023/12/06 11:16:13;;;;;;;9.57;7.63;;;;;;;3.93;72.48;98356.09;5047744;27;103281;-70
2023/12/06 11:18:45;;;;;;;9.10;6.72;;;;;;;4.02;72.44;98354.44;5051249;27;102839;-70
2023/12/06 11:21:14;;;;;;;9.30;7.43;;;;;;;3.94;72.46;98354.31;5045883;27;103653;-69
2023/12/06 11:23:42;;;;;;;7.97;6.43;;;;;;;4.10;72.42;98353.78;5056370;27;103291;-69
2023/12/06 11:26:11;;;;;;;9.63;7.43;;;;;;;4.13;72.02;98354.34;5043042;27;103161;-68
2023/12/06 11:28:42;;;;;;;8.73;6.47;;;;;;;4.10;72.51;98359.03;5041142;27;103057;-67
2023/12/06 11:31:13;;;;;;;10.63;7.22;;;;;;;4.10;72.33;98365.13;5048803;27;103960;-69
2023/12/06 11:33:53;;;;;;;8.80;7.07;;;;;;;4.11;72.75;98360.69;5035250;27;103248;-70
2023/12/06 11:36:24;;;;;;;8.32;6.03;;;;;;;4.07;72.46;98364.53;5045919;27;103196;-67
2023/12/06 11:38:53;;;;;;;8.65;7.07;;;;;;;4.02;72.57;98367.56;5042997;27;102581;-67
2023/12/06 11:41:23;;;;;;;8.77;6.47;;;;;;;4.14;72.01;98373.53;5044570;27;104135;-67